sensor_id;sensor_type;location;lat;lon;timestamp;pressure;altitude;pressure_sealevel;temperature;humidity
27210;BME280;14721;42.668;23.386;2023-02-03T00:01:48;95537.47;;;3.63;73.95
27210;BME280;14721;42.668;23.386;2023-02-03T00:04:14;95539.53;;;3.57;73.93
27210;BME280;14721;42.668;23.386;2023-02-03T00:06:40;95533.66;;;3.50;74.15
27210;BME280;14721;42.668;23.386;2023-02-03T00:09:06;95533.78;;;3.47;74.81
27210;BME280;14721;42.668;23.386;2023-02-03T00:11:32;95541.84;;;3.44;76.10
27210;BME280;14721;42.668;23.386;2023-02-03T00:13:57;95548.13;;;3.42;76.43
27210;BME280;14721;42.668;23.386;2023-02-03T00:16:23;95542.13;;;3.38;77.14
27210;BME280;14721;42.668;23.386;2023-02-03T00:18:49;95553.63;;;3.37;77.16
27210;BME280;14721;42.668;23.386;2023-02-03T00:21:14;95549.81;;;3.23;78.63
27210;BME280;14721;42.668;23.386;2023-02-03T00:23:41;95554.53;;;3.16;78.97
27210;BME280;14721;42.668;23.386;2023-02-03T00:26:12;95555.34;;;3.17;80.17
27210;BME280;14721;42.668;23.386;2023-02-03T00:28:38;95551.22;;;3.11;80.47
27210;BME280;14721;42.668;23.386;2023-02-03T00:31:04;95558.38;;;3.08;80.72
27210;BME280;14721;42.668;23.386;2023-02-03T00:33:30;95563.59;;;3.09;81.34
27210;BME280;14721;42.668;23.386;2023-02-03T00:36:02;95549.81;;;3.03;82.26
27210;BME280;14721;42.668;23.386;2023-02-03T00:38:28;95561.09;;;3.06;81.98
27210;BME280;14721;42.668;23.386;2023-02-03T00:40:54;95571.00;;;3.01;82.48
27210;BME280;14721;42.668;23.386;2023-02-03T00:43:20;95580.19;;;2.91;83.34
27210;BME280;14721;42.668;23.386;2023-02-03T00:45:46;95570.69;;;2.87;84.35
27210;BME280;14721;42.668;23.386;2023-02-03T00:48:11;95574.00;;;2.92;84.42
27210;BME280;14721;42.668;23.386;2023-02-03T00:50:38;95587.34;;;2.89;84.99
27210;BME280;14721;42.668;23.386;2023-02-03T00:53:04;95589.09;;;2.89;85.52
27210;BME280;14721;42.668;23.386;2023-02-03T00:55:29;95583.63;;;2.93;86.04
27210;BME280;14721;42.668;23.386;2023-02-03T00:57:55;95584.94;;;2.83;86.22
27210;BME280;14721;42.668;23.386;2023-02-03T01:00:20;95595.44;;;2.85;86.58
27210;BME280;14721;42.668;23.386;2023-02-03T01:02:46;95589.28;;;2.84;86.93
27210;BME280;14721;42.668;23.386;2023-02-03T01:05:12;95584.88;;;2.85;86.93
27210;BME280;14721;42.668;23.386;2023-02-03T01:07:38;95589.41;;;2.81;87.68
27210;BME280;14721;42.668;23.386;2023-02-03T01:10:04;95595.38;;;2.86;87.69
27210;BME280;14721;42.668;23.386;2023-02-03T01:12:30;95600.59;;;2.88;87.47
27210;BME280;14721;42.668;23.386;2023-02-03T01:14:56;95598.59;;;2.93;87.55
27210;BME280;14721;42.668;23.386;2023-02-03T01:17:22;95597.28;;;2.83;88.10
27210;BME280;14721;42.668;23.386;2023-02-03T01:19:49;95591.13;;;2.82;88.61
27210;BME280;14721;42.668;23.386;2023-02-03T01:22:15;95592.97;;;2.80;88.67
27210;BME280;14721;42.668;23.386;2023-02-03T01:24:40;95587.03;;;2.75;88.69
27210;BME280;14721;42.668;23.386;2023-02-03T01:27:06;95580.16;;;2.71;88.92
27210;BME280;14721;42.668;23.386;2023-02-03T01:29:31;95577.59;;;2.70;89.32
27210;BME280;14721;42.668;23.386;2023-02-03T01:31:57;95577.88;;;2.62;88.98
27210;BME280;14721;42.668;23.386;2023-02-03T01:34:23;95581.41;;;2.61;89.07
27210;BME280;14721;42.668;23.386;2023-02-03T01:36:48;95578.19;;;2.55;88.31
27210;BME280;14721;42.668;23.386;2023-02-03T01:39:14;95586.44;;;2.67;88.51
27210;BME280;14721;42.668;23.386;2023-02-03T01:41:40;95604.50;;;2.78;88.10
27210;BME280;14721;42.668;23.386;2023-02-03T01:44:34;95594.81;;;2.78;86.86
27210;BME280;14721;42.668;23.386;2023-02-03T01:47:09;95602.91;;;2.74;86.07
27210;BME280;14721;42.668;23.386;2023-02-03T01:49:39;95600.38;;;2.71;85.82
27210;BME280;14721;42.668;23.386;2023-02-03T01:52:07;95603.09;;;2.69;85.48
27210;BME280;14721;42.668;23.386;2023-02-03T01:54:37;95599.69;;;2.66;85.52
27210;BME280;14721;42.668;23.386;2023-02-03T01:57:11;95608.53;;;2.65;85.21
27210;BME280;14721;42.668;23.386;2023-02-03T01:59:38;95611.31;;;2.62;85.22
27210;BME280;14721;42.668;23.386;2023-02-03T02:02:05;95604.31;;;2.61;84.99
27210;BME280;14721;42.668;23.386;2023-02-03T02:04:57;95600.94;;;2.57;85.15
27210;BME280;14721;42.668;23.386;2023-02-03T02:07:22;95597.81;;;2.48;85.37
27210;BME280;14721;42.668;23.386;2023-02-03T02:09:48;95592.31;;;2.54;85.52
27210;BME280;14721;42.668;23.386;2023-02-03T02:12:14;95605.38;;;2.57;84.62
27210;BME280;14721;42.668;23.386;2023-02-03T02:14:40;95600.00;;;2.58;84.29
27210;BME280;14721;42.668;23.386;2023-02-03T02:17:27;95601.06;;;2.54;84.18
27210;BME280;14721;42.668;23.386;2023-02-03T02:20:39;95606.81;;;2.42;83.88
27210;BME280;14721;42.668;23.386;2023-02-03T02:23:50;95612.78;;;2.47;84.58
27210;BME280;14721;42.668;23.386;2023-02-03T02:32:05;95628.72;;;2.44;83.98
27210;BME280;14721;42.668;23.386;2023-02-03T02:34:49;95624.44;;;2.42;84.03
27210;BME280;14721;42.668;23.386;2023-02-03T02:37:58;95623.44;;;2.44;84.23
27210;BME280;14721;42.668;23.386;2023-02-03T02:40:33;95618.97;;;2.46;83.78
27210;BME280;14721;42.668;23.386;2023-02-03T02:43:29;95615.53;;;2.44;83.89
27210;BME280;14721;42.668;23.386;2023-02-03T02:46:08;95619.09;;;2.43;83.51
27210;BME280;14721;42.668;23.386;2023-02-03T02:48:39;95617.63;;;2.35;83.88
27210;BME280;14721;42.668;23.386;2023-02-03T02:51:11;95602.00;;;2.30;84.12
27210;BME280;14721;42.668;23.386;2023-02-03T02:53:43;95614.47;;;2.27;84.03
27210;BME280;14721;42.668;23.386;2023-02-03T02:56:12;95614.56;;;2.24;83.68
27210;BME280;14721;42.668;23.386;2023-02-03T02:58:40;95607.50;;;2.24;84.01
27210;BME280;14721;42.668;23.386;2023-02-03T03:01:09;95609.34;;;2.22;83.90
27210;BME280;14721;42.668;23.386;2023-02-03T03:03:35;95616.56;;;2.17;83.94
27210;BME280;14721;42.668;23.386;2023-02-03T03:06:10;95617.50;;;2.16;83.88
27210;BME280;14721;42.668;23.386;2023-02-03T03:08:41;95626.34;;;2.14;83.64
27210;BME280;14721;42.668;23.386;2023-02-03T03:11:10;95628.81;;;2.18;83.40
27210;BME280;14721;42.668;23.386;2023-02-03T03:13:52;95630.63;;;2.18;83.58
27210;BME280;14721;42.668;23.386;2023-02-03T03:16:22;95632.44;;;2.16;82.94
27210;BME280;14721;42.668;23.386;2023-02-03T03:18:53;95629.97;;;2.11;82.78
27210;BME280;14721;42.668;23.386;2023-02-03T03:21:24;95636.91;;;2.14;81.98
27210;BME280;14721;42.668;23.386;2023-02-03T03:23:53;95648.19;;;2.17;81.40
27210;BME280;14721;42.668;23.386;2023-02-03T03:29:55;95641.09;;;2.19;80.40
27210;BME280;14721;42.668;23.386;2023-02-03T03:32:01;95648.09;;;2.20;80.39
27210;BME280;14721;42.668;23.386;2023-02-03T03:34:28;95635.13;;;2.14;80.18
27210;BME280;14721;42.668;23.386;2023-02-03T03:37:02;95645.34;;;2.23;80.04
27210;BME280;14721;42.668;23.386;2023-02-03T03:39:39;95656.69;;;2.25;78.69
27210;BME280;14721;42.668;23.386;2023-02-03T03:42:19;95662.81;;;2.26;78.38
27210;BME280;14721;42.668;23.386;2023-02-03T03:44:59;95667.06;;;2.30;78.15
27210;BME280;14721;42.668;23.386;2023-02-03T03:50:13;95673.78;;;2.38;77.53
27210;BME280;14721;42.668;23.386;2023-02-03T03:52:43;95670.50;;;2.32;77.54
27210;BME280;14721;42.668;23.386;2023-02-03T03:55:11;95670.38;;;2.35;77.64
27210;BME280;14721;42.668;23.386;2023-02-03T03:57:43;95680.81;;;2.38;77.30
27210;BME280;14721;42.668;23.386;2023-02-03T04:00:14;95686.13;;;2.36;77.51
27210;BME280;14721;42.668;23.386;2023-02-03T04:02:44;95681.63;;;2.40;77.53
27210;BME280;14721;42.668;23.386;2023-02-03T04:05:11;95683.28;;;2.42;76.94
27210;BME280;14721;42.668;23.386;2023-02-03T04:07:40;95689.13;;;2.50;77.20
27210;BME280;14721;42.668;23.386;2023-02-03T04:10:33;95693.31;;;2.56;77.00
27210;BME280;14721;42.668;23.386;2023-02-03T04:12:57;95706.31;;;2.60;77.14
27210;BME280;14721;42.668;23.386;2023-02-03T04:15:23;95706.31;;;2.60;77.29
27210;BME280;14721;42.668;23.386;2023-02-03T04:17:48;95708.03;;;2.61;77.00
27210;BME280;14721;42.668;23.386;2023-02-03T04:20:14;95710.13;;;2.53;77.44
27210;BME280;14721;42.668;23.386;2023-02-03T04:22:40;95717.16;;;2.53;77.41
27210;BME280;14721;42.668;23.386;2023-02-03T04:25:06;95723.31;;;2.53;77.90
27210;BME280;14721;42.668;23.386;2023-02-03T04:27:32;95720.78;;;2.50;78.13
27210;BME280;14721;42.668;23.386;2023-02-03T04:29:58;95726.41;;;2.41;78.18
27210;BME280;14721;42.668;23.386;2023-02-03T04:32:24;95728.22;;;2.39;78.53
27210;BME280;14721;42.668;23.386;2023-02-03T04:34:49;95725.03;;;2.31;79.02
27210;BME280;14721;42.668;23.386;2023-02-03T04:37:15;95730.50;;;2.25;79.20
27210;BME280;14721;42.668;23.386;2023-02-03T04:39:41;95724.47;;;2.22;79.22
27210;BME280;14721;42.668;23.386;2023-02-03T04:42:06;95735.72;;;2.27;79.14
27210;BME280;14721;42.668;23.386;2023-02-03T04:44:32;95737.44;;;2.28;79.11
27210;BME280;14721;42.668;23.386;2023-02-03T04:46:57;95738.53;;;2.22;79.75
27210;BME280;14721;42.668;23.386;2023-02-03T04:49:23;95746.88;;;2.10;80.15
27210;BME280;14721;42.668;23.386;2023-02-03T04:51:48;95739.75;;;2.12;80.77
27210;BME280;14721;42.668;23.386;2023-02-03T04:54:14;95739.75;;;2.12;80.36
27210;BME280;14721;42.668;23.386;2023-02-03T04:56:40;95741.81;;;2.04;80.73
27210;BME280;14721;42.668;23.386;2023-02-03T04:59:06;95741.03;;;2.01;80.97
27210;BME280;14721;42.668;23.386;2023-02-03T05:01:32;95757.72;;;2.01;81.44
27210;BME280;14721;42.668;23.386;2023-02-03T05:03:58;95746.97;;;2.07;81.16
27210;BME280;14721;42.668;23.386;2023-02-03T05:06:25;95757.53;;;2.07;80.80
27210;BME280;14721;42.668;23.386;2023-02-03T05:08:51;95759.06;;;2.13;80.70
27210;BME280;14721;42.668;23.386;2023-02-03T05:11:17;95765.47;;;2.06;80.64
27210;BME280;14721;42.668;23.386;2023-02-03T05:13:43;95767.13;;;2.08;80.55
27210;BME280;14721;42.668;23.386;2023-02-03T05:16:08;95767.03;;;2.11;80.87
27210;BME280;14721;42.668;23.386;2023-02-03T05:18:34;95774.13;;;2.09;80.65
27210;BME280;14721;42.668;23.386;2023-02-03T05:20:59;95769.06;;;2.03;80.63
27210;BME280;14721;42.668;23.386;2023-02-03T05:23:25;95781.03;;;2.13;80.29
27210;BME280;14721;42.668;23.386;2023-02-03T05:25:51;95787.09;;;2.15;79.98
27210;BME280;14721;42.668;23.386;2023-02-03T05:28:17;95787.84;;;2.19;79.84
27210;BME280;14721;42.668;23.386;2023-02-03T05:30:44;95780.44;;;2.30;79.40
27210;BME280;14721;42.668;23.386;2023-02-03T05:33:09;95779.69;;;2.26;79.53
27210;BME280;14721;42.668;23.386;2023-02-03T05:35:35;95778.84;;;2.24;78.97
27210;BME280;14721;42.668;23.386;2023-02-03T05:38:00;95776.50;;;2.17;79.65
27210;BME280;14721;42.668;23.386;2023-02-03T05:40:26;95781.03;;;2.13;79.75
27210;BME280;14721;42.668;23.386;2023-02-03T05:43:10;95777.47;;;2.14;79.97
27210;BME280;14721;42.668;23.386;2023-02-03T05:45:36;95776.69;;;2.11;80.37
27210;BME280;14721;42.668;23.386;2023-02-03T05:48:01;95786.50;;;2.07;80.36
27210;BME280;14721;42.668;23.386;2023-02-03T05:50:28;95779.38;;;2.09;80.50
27210;BME280;14721;42.668;23.386;2023-02-03T05:52:58;95787.41;;;2.06;80.22
27210;BME280;14721;42.668;23.386;2023-02-03T05:55:25;95791.94;;;2.03;80.28
27210;BME280;14721;42.668;23.386;2023-02-03T05:57:50;95790.19;;;2.02;80.13
27210;BME280;14721;42.668;23.386;2023-02-03T06:00:16;95794.41;;;2.07;79.78
27210;BME280;14721;42.668;23.386;2023-02-03T06:02:42;95791.53;;;2.15;80.02
27210;BME280;14721;42.668;23.386;2023-02-03T06:05:08;95794.25;;;2.12;79.88
27210;BME280;14721;42.668;23.386;2023-02-03T06:07:34;95793.34;;;2.13;79.71
27210;BME280;14721;42.668;23.386;2023-02-03T06:10:00;95799.22;;;2.21;79.52
27210;BME280;14721;42.668;23.386;2023-02-03T06:12:25;95788.25;;;2.33;78.58
27210;BME280;14721;42.668;23.386;2023-02-03T06:14:51;95799.94;;;2.24;78.70
27210;BME280;14721;42.668;23.386;2023-02-03T06:17:17;95812.66;;;2.38;78.06
27210;BME280;14721;42.668;23.386;2023-02-03T06:19:42;95808.16;;;2.64;77.52
27210;BME280;14721;42.668;23.386;2023-02-03T06:22:08;95806.75;;;3.25;75.45
27210;BME280;14721;42.668;23.386;2023-02-03T06:24:33;95812.31;;;3.40;73.28
27210;BME280;14721;42.668;23.386;2023-02-03T06:26:59;95815.31;;;3.08;73.87
27210;BME280;14721;42.668;23.386;2023-02-03T06:29:25;95825.41;;;3.43;72.86
27210;BME280;14721;42.668;23.386;2023-02-03T06:31:50;95820.66;;;3.30;72.97
27210;BME280;14721;42.668;23.386;2023-02-03T06:34:16;95822.09;;;3.81;71.45
27210;BME280;14721;42.668;23.386;2023-02-03T06:36:41;95822.34;;;4.39;68.84
27210;BME280;14721;42.668;23.386;2023-02-03T06:39:07;95828.81;;;4.92;66.35
27210;BME280;14721;42.668;23.386;2023-02-03T06:41:32;95837.16;;;5.21;64.64
27210;BME280;14721;42.668;23.386;2023-02-03T06:43:58;95830.59;;;5.67;63.02
27210;BME280;14721;42.668;23.386;2023-02-03T06:46:23;95839.31;;;5.69;61.81
27210;BME280;14721;42.668;23.386;2023-02-03T06:48:53;95848.09;;;5.71;61.50
27210;BME280;14721;42.668;23.386;2023-02-03T06:51:19;95844.00;;;6.01;60.91
27210;BME280;14721;42.668;23.386;2023-02-03T06:53:44;95841.16;;;6.23;59.65
27210;BME280;14721;42.668;23.386;2023-02-03T06:56:10;95844.38;;;6.29;58.71
27210;BME280;14721;42.668;23.386;2023-02-03T06:58:35;95847.72;;;6.33;58.58
27210;BME280;14721;42.668;23.386;2023-02-03T07:01:01;95842.22;;;6.71;58.42
27210;BME280;14721;42.668;23.386;2023-02-03T07:03:26;95831.66;;;6.70;56.60
27210;BME280;14721;42.668;23.386;2023-02-03T07:05:52;95822.63;;;6.57;55.75
27210;BME280;14721;42.668;23.386;2023-02-03T07:08:17;95821.19;;;6.84;55.27
27210;BME280;14721;42.668;23.386;2023-02-03T07:10:43;95816.59;;;6.70;55.58
27210;BME280;14721;42.668;23.386;2023-02-03T07:13:08;95824.25;;;6.93;55.05
27210;BME280;14721;42.668;23.386;2023-02-03T07:15:39;95815.09;;;6.99;55.45
27210;BME280;14721;42.668;23.386;2023-02-03T07:18:05;95821.69;;;7.24;54.53
27210;BME280;14721;42.668;23.386;2023-02-03T07:20:31;95815.13;;;7.47;54.56
27210;BME280;14721;42.668;23.386;2023-02-03T07:22:57;95810.31;;;7.38;54.21
27210;BME280;14721;42.668;23.386;2023-02-03T07:25:24;95817.41;;;7.37;53.77
27210;BME280;14721;42.668;23.386;2023-02-03T07:27:50;95809.59;;;7.34;53.61
27210;BME280;14721;42.668;23.386;2023-02-03T07:30:16;95829.16;;;6.84;54.92
27210;BME280;14721;42.668;23.386;2023-02-03T07:32:46;95827.84;;;6.75;55.19
27210;BME280;14721;42.668;23.386;2023-02-03T07:35:12;95844.00;;;6.88;54.56
27210;BME280;14721;42.668;23.386;2023-02-03T07:37:40;95832.78;;;7.32;54.01
27210;BME280;14721;42.668;23.386;2023-02-03T07:40:08;95830.91;;;7.50;53.04
27210;BME280;14721;42.668;23.386;2023-02-03T07:42:34;95836.50;;;7.77;52.21
27210;BME280;14721;42.668;23.386;2023-02-03T07:44:59;95843.53;;;7.62;52.67
27210;BME280;14721;42.668;23.386;2023-02-03T07:47:24;95841.75;;;7.62;52.52
27210;BME280;14721;42.668;23.386;2023-02-03T07:49:50;95844.59;;;7.91;52.07
27210;BME280;14721;42.668;23.386;2023-02-03T07:52:15;95845.88;;;8.15;51.17
27210;BME280;14721;42.668;23.386;2023-02-03T07:54:41;95848.47;;;8.32;50.36
27210;BME280;14721;42.668;23.386;2023-02-03T07:57:06;95834.31;;;8.31;49.66
27210;BME280;14721;42.668;23.386;2023-02-03T07:59:32;95838.81;;;8.14;50.21
27210;BME280;14721;42.668;23.386;2023-02-03T08:01:57;95837.72;;;8.02;50.14
27210;BME280;14721;42.668;23.386;2023-02-03T08:04:23;95834.88;;;8.05;50.26
27210;BME280;14721;42.668;23.386;2023-02-03T08:06:49;95837.88;;;7.68;50.41
27210;BME280;14721;42.668;23.386;2023-02-03T08:09:32;95839.47;;;7.39;51.36
27210;BME280;14721;42.668;23.386;2023-02-03T08:11:58;95839.91;;;7.15;52.10
27210;BME280;14721;42.668;23.386;2023-02-03T08:14:23;95846.25;;;7.12;52.38
27210;BME280;14721;42.668;23.386;2023-02-03T08:16:49;95839.09;;;6.63;53.71
27210;BME280;14721;42.668;23.386;2023-02-03T08:19:14;95838.81;;;6.17;55.07
27210;BME280;14721;42.668;23.386;2023-02-03T08:21:40;95848.88;;;5.73;56.67
27210;BME280;14721;42.668;23.386;2023-02-03T08:24:06;95861.09;;;5.57;56.37
27210;BME280;14721;42.668;23.386;2023-02-03T08:26:31;95863.38;;;5.27;58.64
27210;BME280;14721;42.668;23.386;2023-02-03T08:28:56;95857.22;;;5.27;58.51
27210;BME280;14721;42.668;23.386;2023-02-03T08:31:22;95863.88;;;5.17;59.18
27210;BME280;14721;42.668;23.386;2023-02-03T08:33:47;95867.19;;;5.02;58.83
27210;BME280;14721;42.668;23.386;2023-02-03T08:36:13;95877.22;;;4.75;58.66
27210;BME280;14721;42.668;23.386;2023-02-03T08:38:40;95874.94;;;4.46;59.18
27210;BME280;14721;42.668;23.386;2023-02-03T08:41:11;95867.47;;;4.56;59.47
27210;BME280;14721;42.668;23.386;2023-02-03T08:43:37;95874.53;;;4.55;58.89
27210;BME280;14721;42.668;23.386;2023-02-03T08:46:06;95879.63;;;4.60;59.31
27210;BME280;14721;42.668;23.386;2023-02-03T08:48:32;95882.72;;;4.49;59.18
27210;BME280;14721;42.668;23.386;2023-02-03T08:50:58;95902.81;;;4.55;60.07
27210;BME280;14721;42.668;23.386;2023-02-03T08:53:24;95889.31;;;4.61;60.51
27210;BME280;14721;42.668;23.386;2023-02-03T08:55:49;95897.25;;;4.61;58.96
27210;BME280;14721;42.668;23.386;2023-02-03T08:58:15;95900.16;;;4.75;58.78
27210;BME280;14721;42.668;23.386;2023-02-03T09:00:41;95911.25;;;4.63;57.96
27210;BME280;14721;42.668;23.386;2023-02-03T09:03:07;95903.19;;;4.46;59.04
27210;BME280;14721;42.668;23.386;2023-02-03T09:05:33;95903.91;;;4.49;59.75
27210;BME280;14721;42.668;23.386;2023-02-03T09:08:01;95887.91;;;4.52;59.15
27210;BME280;14721;42.668;23.386;2023-02-03T09:10:27;95902.69;;;4.58;59.38
27210;BME280;14721;42.668;23.386;2023-02-03T09:12:53;95901.81;;;4.57;59.77
27210;BME280;14721;42.668;23.386;2023-02-03T09:15:18;95909.56;;;4.62;60.12
27210;BME280;14721;42.668;23.386;2023-02-03T09:17:44;95892.53;;;4.47;59.42
27210;BME280;14721;42.668;23.386;2023-02-03T09:20:10;95897.78;;;4.27;59.89
27210;BME280;14721;42.668;23.386;2023-02-03T09:22:38;95885.56;;;4.25;60.97
27210;BME280;14721;42.668;23.386;2023-02-03T09:25:05;95887.13;;;4.29;61.93
27210;BME280;14721;42.668;23.386;2023-02-03T09:27:30;95887.69;;;4.37;62.32
27210;BME280;14721;42.668;23.386;2023-02-03T09:29:56;95894.56;;;4.41;62.44
27210;BME280;14721;42.668;23.386;2023-02-03T09:32:24;95886.06;;;4.54;62.89
27210;BME280;14721;42.668;23.386;2023-02-03T09:34:50;95885.75;;;4.62;62.60
27210;BME280;14721;42.668;23.386;2023-02-03T09:37:15;95872.44;;;4.63;62.94
27210;BME280;14721;42.668;23.386;2023-02-03T09:39:41;95861.19;;;4.58;62.05
27210;BME280;14721;42.668;23.386;2023-02-03T09:47:42;95862.03;;;4.59;62.38
27210;BME280;14721;42.668;23.386;2023-02-03T09:50:21;95869.44;;;4.51;62.39
27210;BME280;14721;42.668;23.386;2023-02-03T09:52:49;95870.19;;;4.54;62.03
27210;BME280;14721;42.668;23.386;2023-02-03T09:58:07;95876.84;;;4.63;61.93
27210;BME280;14721;42.668;23.386;2023-02-03T10:00:47;95881.56;;;4.56;59.00
27210;BME280;14721;42.668;23.386;2023-02-03T10:03:20;95877.00;;;4.40;59.22
27210;BME280;14721;42.668;23.386;2023-02-03T10:17:39;95861.81;;;4.43;57.59
27210;BME280;14721;42.668;23.386;2023-02-03T10:20:13;95864.22;;;4.49;57.67
27210;BME280;14721;42.668;23.386;2023-02-03T10:23:22;95872.91;;;4.53;57.28
27210;BME280;14721;42.668;23.386;2023-02-03T10:25:53;95869.28;;;4.75;56.71
27210;BME280;14721;42.668;23.386;2023-02-03T10:28:24;95851.91;;;4.88;56.61
27210;BME280;14721;42.668;23.386;2023-02-03T10:31:18;95846.56;;;4.90;56.15
27210;BME280;14721;42.668;23.386;2023-02-03T10:33:44;95850.06;;;4.90;54.27
27210;BME280;14721;42.668;23.386;2023-02-03T10:36:34;95852.03;;;5.05;55.16
27210;BME280;14721;42.668;23.386;2023-02-03T10:39:13;95852.31;;;5.18;55.19
27210;BME280;14721;42.668;23.386;2023-02-03T10:41:42;95830.09;;;5.40;54.86
27210;BME280;14721;42.668;23.386;2023-02-03T10:44:10;95861.66;;;5.45;53.94
27210;BME280;14721;42.668;23.386;2023-02-03T10:46:38;95848.69;;;5.39;52.70
27210;BME280;14721;42.668;23.386;2023-02-03T10:49:04;95863.38;;;5.27;52.63
27210;BME280;14721;42.668;23.386;2023-02-03T10:51:37;95856.72;;;5.19;53.17
27210;BME280;14721;42.668;23.386;2023-02-03T10:56:54;95861.00;;;5.21;54.56
27210;BME280;14721;42.668;23.386;2023-02-03T10:59:30;95866.78;;;5.11;52.70
27210;BME280;14721;42.668;23.386;2023-02-03T11:01:57;95861.00;;;4.83;53.54
27210;BME280;14721;42.668;23.386;2023-02-03T11:04:27;95880.91;;;4.91;52.64
27210;BME280;14721;42.668;23.386;2023-02-03T11:07:00;95870.91;;;4.98;49.85
27210;BME280;14721;42.668;23.386;2023-02-03T11:09:31;95860.13;;;5.02;48.99
27210;BME280;14721;42.668;23.386;2023-02-03T11:12:17;95862.63;;;4.85;49.60
27210;BME280;14721;42.668;23.386;2023-02-03T11:14:51;95857.22;;;4.88;49.98
27210;BME280;14721;42.668;23.386;2023-02-03T11:19:52;95856.84;;;4.77;50.14
27210;BME280;14721;42.668;23.386;2023-02-03T11:24:51;95862.50;;;5.08;50.72
27210;BME280;14721;42.668;23.386;2023-02-03T11:27:18;95842.38;;;5.04;50.78
27210;BME280;14721;42.668;23.386;2023-02-03T11:30:14;95846.75;;;5.24;50.30
27210;BME280;14721;42.668;23.386;2023-02-03T11:32:39;95831.66;;;5.26;47.95
27210;BME280;14721;42.668;23.386;2023-02-03T11:35:26;95835.47;;;5.39;47.40
27210;BME280;14721;42.668;23.386;2023-02-03T11:37:57;95822.00;;;5.43;47.72
27210;BME280;14721;42.668;23.386;2023-02-03T11:40:28;95828.09;;;5.64;48.14
27210;BME280;14721;42.668;23.386;2023-02-03T11:45:29;95804.31;;;5.62;48.55
27210;BME280;14721;42.668;23.386;2023-02-03T11:55:40;95822.69;;;5.28;49.41
27210;BME280;14721;42.668;23.386;2023-02-03T12:01:08;95816.09;;;5.00;46.25
27210;BME280;14721;42.668;23.386;2023-02-03T12:20:46;95811.28;;;4.69;45.89
27210;BME280;14721;42.668;23.386;2023-02-03T12:31:07;95819.16;;;4.91;43.53
27210;BME280;14721;42.668;23.386;2023-02-03T12:33:47;95807.69;;;4.90;43.60
27210;BME280;14721;42.668;23.386;2023-02-03T12:36:19;95807.34;;;4.98;44.13
27210;BME280;14721;42.668;23.386;2023-02-03T12:38:54;95804.72;;;4.98;44.88
27210;BME280;14721;42.668;23.386;2023-02-03T12:41:30;95803.34;;;5.08;45.18
27210;BME280;14721;42.668;23.386;2023-02-03T12:44:04;95795.59;;;5.23;43.73
27210;BME280;14721;42.668;23.386;2023-02-03T12:46:41;95806.25;;;5.22;43.58
27210;BME280;14721;42.668;23.386;2023-02-03T12:49:35;95786.69;;;5.06;44.87
27210;BME280;14721;42.668;23.386;2023-02-03T12:57:38;95782.59;;;4.60;46.64
27210;BME280;14721;42.668;23.386;2023-02-03T13:00:45;95776.22;;;4.64;46.82
27210;BME280;14721;42.668;23.386;2023-02-03T13:08:36;95753.72;;;4.74;47.97
27210;BME280;14721;42.668;23.386;2023-02-03T13:11:11;95775.44;;;5.01;48.12
27210;BME280;14721;42.668;23.386;2023-02-03T13:13:41;95780.94;;;4.96;47.93
27210;BME280;14721;42.668;23.386;2023-02-03T13:16:10;95789.44;;;4.84;48.77
27210;BME280;14721;42.668;23.386;2023-02-03T13:18:43;95783.97;;;4.69;50.03
27210;BME280;14721;42.668;23.386;2023-02-03T13:21:10;95768.50;;;4.60;50.58
27210;BME280;14721;42.668;23.386;2023-02-03T13:23:40;95771.81;;;4.65;50.02
27210;BME280;14721;42.668;23.386;2023-02-03T13:26:34;95771.81;;;4.65;49.76
27210;BME280;14721;42.668;23.386;2023-02-03T13:30:19;95765.16;;;4.75;49.67
27210;BME280;14721;42.668;23.386;2023-02-03T13:41:09;95782.78;;;4.56;50.20
27210;BME280;14721;42.668;23.386;2023-02-03T13:43:47;95785.38;;;4.57;50.89
27210;BME280;14721;42.668;23.386;2023-02-03T13:48:47;95776.44;;;4.60;50.88
27210;BME280;14721;42.668;23.386;2023-02-03T13:51:16;95769.03;;;4.48;50.57
27210;BME280;14721;42.668;23.386;2023-02-03T13:53:45;95781.88;;;4.37;50.64
27210;BME280;14721;42.668;23.386;2023-02-03T13:56:30;95771.94;;;4.22;50.82
27210;BME280;14721;42.668;23.386;2023-02-03T13:59:05;95779.34;;;4.14;51.84
27210;BME280;14721;42.668;23.386;2023-02-03T14:01:44;95785.13;;;4.02;52.80
27210;BME280;14721;42.668;23.386;2023-02-03T14:15:01;95791.53;;;4.38;54.32
27210;BME280;14721;42.668;23.386;2023-02-03T14:22:53;95773.59;;;4.44;53.69
27210;BME280;14721;42.668;23.386;2023-02-03T14:25:20;95780.41;;;4.50;53.59
27210;BME280;14721;42.668;23.386;2023-02-03T14:27:48;95776.75;;;4.52;53.49
27210;BME280;14721;42.668;23.386;2023-02-03T14:30:23;95777.50;;;4.56;53.44
27210;BME280;14721;42.668;23.386;2023-02-03T14:32:49;95781.34;;;4.49;53.61
27210;BME280;14721;42.668;23.386;2023-02-03T14:35:18;95778.91;;;4.44;53.43
27210;BME280;14721;42.668;23.386;2023-02-03T14:37:52;95791.19;;;4.45;53.53
27210;BME280;14721;42.668;23.386;2023-02-03T14:47:03;95774.72;;;4.39;53.15
27210;BME280;14721;42.668;23.386;2023-02-03T14:49:52;95767.84;;;4.35;53.40
27210;BME280;14721;42.668;23.386;2023-02-03T14:55:32;95778.16;;;4.21;52.25
27210;BME280;14721;42.668;23.386;2023-02-03T14:58:06;95761.69;;;4.14;51.91
27210;BME280;14721;42.668;23.386;2023-02-03T15:00:40;95761.25;;;4.25;51.41
27210;BME280;14721;42.668;23.386;2023-02-03T15:05:41;95751.91;;;4.16;50.08
27210;BME280;14721;42.668;23.386;2023-02-03T15:08:44;95750.56;;;4.06;50.52
27210;BME280;14721;42.668;23.386;2023-02-03T15:11:33;95741.78;;;4.06;50.11
27210;BME280;14721;42.668;23.386;2023-02-03T15:14:24;95732.19;;;4.03;50.25
27210;BME280;14721;42.668;23.386;2023-02-03T15:16:59;95728.16;;;3.95;50.42
27210;BME280;14721;42.668;23.386;2023-02-03T15:19:30;95728.88;;;3.98;50.50
27210;BME280;14721;42.668;23.386;2023-02-03T15:21:56;95716.06;;;3.89;50.91
27210;BME280;14721;42.668;23.386;2023-02-03T15:24:22;95718.06;;;3.84;51.53